sensor_id;sensor_type;location;lat;lon;timestamp;P1;durP1;ratioP1;P2;durP2;ratioP2
45344;SDS011;31078;48.304;11.896;2022-08-21T00:02:13;9.82;;;4.15;;
45344;SDS011;31078;48.304;11.896;2022-08-21T00:04:40;10.30;;;4.35;;
45344;SDS011;31078;48.304;11.896;2022-08-21T00:07:07;6.15;;;4.00;;
45344;SDS011;31078;48.304;11.896;2022-08-21T00:09:34;8.45;;;4.00;;
45344;SDS011;31078;48.304;11.896;2022-08-21T00:12:01;9.57;;;4.35;;
45344;SDS011;31078;48.304;11.896;2022-08-21T00:14:29;10.98;;;4.50;;
45344;SDS011;31078;48.304;11.896;2022-08-21T00:16:58;10.38;;;4.70;;
45344;SDS011;31078;48.304;11.896;2022-08-21T00:19:25;7.38;;;4.05;;
45344;SDS011;31078;48.304;11.896;2022-08-21T00:21:51;8.55;;;4.35;;
45344;SDS011;31078;48.304;11.896;2022-08-21T00:24:18;7.22;;;4.55;;
45344;SDS011;31078;48.304;11.896;2022-08-21T00:26:45;9.48;;;5.15;;
45344;SDS011;31078;48.304;11.896;2022-08-21T00:29:12;9.75;;;4.60;;
45344;SDS011;31078;48.304;11.896;2022-08-21T00:31:41;13.68;;;5.60;;
45344;SDS011;31078;48.304;11.896;2022-08-21T00:34:08;10.65;;;4.78;;
45344;SDS011;31078;48.304;11.896;2022-08-21T00:36:36;10.07;;;4.03;;
45344;SDS011;31078;48.304;11.896;2022-08-21T00:39:03;7.35;;;4.75;;
45344;SDS011;31078;48.304;11.896;2022-08-21T00:41:30;9.07;;;4.30;;
45344;SDS011;31078;48.304;11.896;2022-08-21T00:43:57;9.85;;;5.10;;
45344;SDS011;31078;48.304;11.896;2022-08-21T00:46:24;10.77;;;5.03;;
45344;SDS011;31078;48.304;11.896;2022-08-21T00:48:52;7.32;;;4.72;;
45344;SDS011;31078;48.304;11.896;2022-08-21T00:51:20;7.85;;;4.47;;
45344;SDS011;31078;48.304;11.896;2022-08-21T00:53:53;8.07;;;4.18;;
45344;SDS011;31078;48.304;11.896;2022-08-21T00:56:21;14.27;;;4.93;;
45344;SDS011;31078;48.304;11.896;2022-08-21T00:58:49;7.03;;;4.10;;
45344;SDS011;31078;48.304;11.896;2022-08-21T01:01:18;7.13;;;4.30;;
45344;SDS011;31078;48.304;11.896;2022-08-21T01:03:45;7.47;;;4.22;;
45344;SDS011;31078;48.304;11.896;2022-08-21T01:06:13;8.80;;;4.80;;
45344;SDS011;31078;48.304;11.896;2022-08-21T01:08:40;8.00;;;4.53;;
45344;SDS011;31078;48.304;11.896;2022-08-21T01:11:06;8.18;;;4.65;;
45344;SDS011;31078;48.304;11.896;2022-08-21T01:13:34;7.32;;;4.30;;
45344;SDS011;31078;48.304;11.896;2022-08-21T01:16:05;7.88;;;4.22;;
45344;SDS011;31078;48.304;11.896;2022-08-21T01:18:35;7.22;;;4.05;;
45344;SDS011;31078;48.304;11.896;2022-08-21T01:21:04;8.52;;;4.30;;
45344;SDS011;31078;48.304;11.896;2022-08-21T01:23:33;9.98;;;4.40;;
45344;SDS011;31078;48.304;11.896;2022-08-21T01:25:59;6.65;;;3.97;;
45344;SDS011;31078;48.304;11.896;2022-08-21T01:28:26;7.47;;;4.07;;
45344;SDS011;31078;48.304;11.896;2022-08-21T01:30:56;8.50;;;4.55;;
45344;SDS011;31078;48.304;11.896;2022-08-21T01:33:26;8.82;;;4.43;;
45344;SDS011;31078;48.304;11.896;2022-08-21T01:35:52;7.10;;;3.83;;
45344;SDS011;31078;48.304;11.896;2022-08-21T01:38:20;7.93;;;4.18;;
45344;SDS011;31078;48.304;11.896;2022-08-21T01:40:47;6.85;;;3.90;;
45344;SDS011;31078;48.304;11.896;2022-08-21T01:43:14;8.35;;;3.75;;
45344;SDS011;31078;48.304;11.896;2022-08-21T01:45:42;10.05;;;4.28;;
45344;SDS011;31078;48.304;11.896;2022-08-21T01:48:09;11.45;;;4.30;;
45344;SDS011;31078;48.304;11.896;2022-08-21T01:50:35;7.53;;;4.15;;
45344;SDS011;31078;48.304;11.896;2022-08-21T01:53:02;10.10;;;4.30;;
45344;SDS011;31078;48.304;11.896;2022-08-21T01:55:31;8.70;;;3.97;;
45344;SDS011;31078;48.304;11.896;2022-08-21T01:57:57;8.95;;;3.55;;
45344;SDS011;31078;48.304;11.896;2022-08-21T02:00:25;9.20;;;3.50;;
45344;SDS011;31078;48.304;11.896;2022-08-21T02:02:52;7.47;;;4.00;;
45344;SDS011;31078;48.304;11.896;2022-08-21T02:05:19;12.38;;;3.65;;
45344;SDS011;31078;48.304;11.896;2022-08-21T02:07:46;6.53;;;3.50;;
45344;SDS011;31078;48.304;11.896;2022-08-21T02:10:16;7.50;;;3.72;;
45344;SDS011;31078;48.304;11.896;2022-08-21T02:12:46;9.20;;;3.95;;
45344;SDS011;31078;48.304;11.896;2022-08-21T02:15:13;10.27;;;3.95;;
45344;SDS011;31078;48.304;11.896;2022-08-21T02:17:43;5.53;;;3.33;;
45344;SDS011;31078;48.304;11.896;2022-08-21T02:20:15;9.70;;;3.83;;
45344;SDS011;31078;48.304;11.896;2022-08-21T02:22:45;6.55;;;3.72;;
45344;SDS011;31078;48.304;11.896;2022-08-21T02:25:12;7.47;;;3.22;;
45344;SDS011;31078;48.304;11.896;2022-08-21T02:27:39;9.55;;;3.60;;
45344;SDS011;31078;48.304;11.896;2022-08-21T02:30:10;8.20;;;3.83;;
45344;SDS011;31078;48.304;11.896;2022-08-21T02:32:38;8.80;;;3.83;;
45344;SDS011;31078;48.304;11.896;2022-08-21T02:35:05;8.13;;;3.88;;
45344;SDS011;31078;48.304;11.896;2022-08-21T02:37:32;7.45;;;4.15;;
45344;SDS011;31078;48.304;11.896;2022-08-21T02:39:59;8.30;;;3.67;;
45344;SDS011;31078;48.304;11.896;2022-08-21T02:42:26;11.23;;;3.78;;
45344;SDS011;31078;48.304;11.896;2022-08-21T02:44:52;7.35;;;3.90;;
45344;SDS011;31078;48.304;11.896;2022-08-21T02:47:20;5.75;;;3.58;;
45344;SDS011;31078;48.304;11.896;2022-08-21T02:49:46;10.15;;;4.32;;
45344;SDS011;31078;48.304;11.896;2022-08-21T02:52:13;6.05;;;3.42;;
45344;SDS011;31078;48.304;11.896;2022-08-21T02:54:39;7.20;;;3.72;;
45344;SDS011;31078;48.304;11.896;2022-08-21T02:57:06;8.77;;;4.13;;
45344;SDS011;31078;48.304;11.896;2022-08-21T02:59:33;5.80;;;3.17;;
45344;SDS011;31078;48.304;11.896;2022-08-21T03:01:59;8.35;;;3.58;;
45344;SDS011;31078;48.304;11.896;2022-08-21T03:04:27;6.35;;;3.50;;
45344;SDS011;31078;48.304;11.896;2022-08-21T03:06:53;6.03;;;3.65;;
45344;SDS011;31078;48.304;11.896;2022-08-21T03:09:21;6.50;;;3.92;;
45344;SDS011;31078;48.304;11.896;2022-08-21T03:11:47;7.32;;;3.95;;
45344;SDS011;31078;48.304;11.896;2022-08-21T03:14:14;8.77;;;3.75;;
45344;SDS011;31078;48.304;11.896;2022-08-21T03:16:40;9.18;;;3.70;;
45344;SDS011;31078;48.304;11.896;2022-08-21T03:19:07;11.30;;;4.28;;
45344;SDS011;31078;48.304;11.896;2022-08-21T03:21:35;8.05;;;3.65;;
45344;SDS011;31078;48.304;11.896;2022-08-21T03:24:02;5.57;;;3.40;;
45344;SDS011;31078;48.304;11.896;2022-08-21T03:26:29;11.32;;;4.18;;
45344;SDS011;31078;48.304;11.896;2022-08-21T03:28:56;7.65;;;3.95;;
45344;SDS011;31078;48.304;11.896;2022-08-21T03:31:23;7.35;;;4.20;;
45344;SDS011;31078;48.304;11.896;2022-08-21T03:33:51;7.53;;;3.38;;
45344;SDS011;31078;48.304;11.896;2022-08-21T03:36:20;7.32;;;3.95;;
45344;SDS011;31078;48.304;11.896;2022-08-21T03:38:47;7.25;;;3.30;;
45344;SDS011;31078;48.304;11.896;2022-08-21T03:41:14;7.47;;;3.47;;
45344;SDS011;31078;48.304;11.896;2022-08-21T03:43:40;9.23;;;4.00;;
45344;SDS011;31078;48.304;11.896;2022-08-21T03:46:07;7.60;;;3.35;;
45344;SDS011;31078;48.304;11.896;2022-08-21T03:48:34;5.60;;;3.08;;
45344;SDS011;31078;48.304;11.896;2022-08-21T03:51:01;7.32;;;3.60;;
45344;SDS011;31078;48.304;11.896;2022-08-21T03:53:28;7.45;;;3.85;;
45344;SDS011;31078;48.304;11.896;2022-08-21T03:55:57;9.32;;;3.72;;
45344;SDS011;31078;48.304;11.896;2022-08-21T03:58:24;5.78;;;3.50;;
45344;SDS011;31078;48.304;11.896;2022-08-21T04:00:54;7.15;;;4.00;;
45344;SDS011;31078;48.304;11.896;2022-08-21T04:03:22;7.45;;;3.72;;
45344;SDS011;31078;48.304;11.896;2022-08-21T04:05:48;8.07;;;4.15;;
45344;SDS011;31078;48.304;11.896;2022-08-21T04:08:16;9.35;;;3.75;;
45344;SDS011;31078;48.304;11.896;2022-08-21T04:10:44;6.15;;;3.42;;
45344;SDS011;31078;48.304;11.896;2022-08-21T04:13:13;6.50;;;3.88;;
45344;SDS011;31078;48.304;11.896;2022-08-21T04:15:40;10.55;;;3.60;;
45344;SDS011;31078;48.304;11.896;2022-08-21T04:18:07;6.63;;;3.75;;
45344;SDS011;31078;48.304;11.896;2022-08-21T04:20:34;7.63;;;3.78;;
45344;SDS011;31078;48.304;11.896;2022-08-21T04:23:01;4.95;;;3.13;;
45344;SDS011;31078;48.304;11.896;2022-08-21T04:25:29;10.15;;;4.50;;
45344;SDS011;31078;48.304;11.896;2022-08-21T04:27:55;7.95;;;3.65;;
45344;SDS011;31078;48.304;11.896;2022-08-21T04:30:24;6.63;;;3.92;;
45344;SDS011;31078;48.304;11.896;2022-08-21T04:32:51;9.40;;;3.50;;
45344;SDS011;31078;48.304;11.896;2022-08-21T04:35:19;7.38;;;3.35;;
45344;SDS011;31078;48.304;11.896;2022-08-21T04:37:48;7.45;;;3.60;;
45344;SDS011;31078;48.304;11.896;2022-08-21T04:40:15;11.15;;;3.97;;
45344;SDS011;31078;48.304;11.896;2022-08-21T04:42:43;12.32;;;5.22;;
45344;SDS011;31078;48.304;11.896;2022-08-21T04:45:15;9.50;;;3.88;;
45344;SDS011;31078;48.304;11.896;2022-08-21T04:47:47;10.55;;;3.90;;
45344;SDS011;31078;48.304;11.896;2022-08-21T04:50:15;8.85;;;3.55;;
45344;SDS011;31078;48.304;11.896;2022-08-21T04:52:41;7.25;;;3.80;;
45344;SDS011;31078;48.304;11.896;2022-08-21T04:55:09;6.82;;;3.85;;
45344;SDS011;31078;48.304;11.896;2022-08-21T04:57:36;7.57;;;3.72;;
45344;SDS011;31078;48.304;11.896;2022-08-21T05:00:04;7.65;;;4.18;;
45344;SDS011;31078;48.304;11.896;2022-08-21T05:02:32;8.13;;;4.35;;
45344;SDS011;31078;48.304;11.896;2022-08-21T05:05:00;7.80;;;3.92;;
45344;SDS011;31078;48.304;11.896;2022-08-21T05:07:27;6.40;;;3.63;;
45344;SDS011;31078;48.304;11.896;2022-08-21T05:09:57;10.88;;;3.95;;
45344;SDS011;31078;48.304;11.896;2022-08-21T05:12:25;7.50;;;3.88;;
45344;SDS011;31078;48.304;11.896;2022-08-21T05:14:51;9.20;;;4.25;;
45344;SDS011;31078;48.304;11.896;2022-08-21T05:17:18;7.18;;;4.05;;
45344;SDS011;31078;48.304;11.896;2022-08-21T05:19:44;6.95;;;4.03;;
45344;SDS011;31078;48.304;11.896;2022-08-21T05:22:18;7.88;;;4.13;;
45344;SDS011;31078;48.304;11.896;2022-08-21T05:24:45;7.88;;;3.90;;
45344;SDS011;31078;48.304;11.896;2022-08-21T05:27:11;9.23;;;4.53;;
45344;SDS011;31078;48.304;11.896;2022-08-21T05:29:38;6.35;;;3.92;;
45344;SDS011;31078;48.304;11.896;2022-08-21T05:32:07;7.22;;;4.03;;
45344;SDS011;31078;48.304;11.896;2022-08-21T05:34:38;7.35;;;4.25;;
45344;SDS011;31078;48.304;11.896;2022-08-21T05:37:09;10.93;;;4.40;;
45344;SDS011;31078;48.304;11.896;2022-08-21T05:39:38;9.63;;;4.32;;
45344;SDS011;31078;48.304;11.896;2022-08-21T05:42:04;7.50;;;4.43;;
45344;SDS011;31078;48.304;11.896;2022-08-21T05:44:31;14.63;;;4.22;;
45344;SDS011;31078;48.304;11.896;2022-08-21T05:47:01;6.78;;;3.90;;
45344;SDS011;31078;48.304;11.896;2022-08-21T05:49:29;7.55;;;3.80;;
45344;SDS011;31078;48.304;11.896;2022-08-21T05:51:55;8.93;;;4.32;;
45344;SDS011;31078;48.304;11.896;2022-08-21T05:54:23;6.93;;;4.05;;
45344;SDS011;31078;48.304;11.896;2022-08-21T05:56:50;7.28;;;4.18;;
45344;SDS011;31078;48.304;11.896;2022-08-21T05:59:17;6.88;;;3.65;;
45344;SDS011;31078;48.304;11.896;2022-08-21T06:01:43;6.85;;;3.90;;
45344;SDS011;31078;48.304;11.896;2022-08-21T06:04:10;8.18;;;4.40;;
45344;SDS011;31078;48.304;11.896;2022-08-21T06:06:36;8.35;;;3.92;;
45344;SDS011;31078;48.304;11.896;2022-08-21T06:09:03;7.28;;;3.90;;
45344;SDS011;31078;48.304;11.896;2022-08-21T06:11:31;7.30;;;4.07;;
45344;SDS011;31078;48.304;11.896;2022-08-21T06:13:58;11.98;;;4.15;;
45344;SDS011;31078;48.304;11.896;2022-08-21T06:16:27;7.60;;;4.30;;
45344;SDS011;31078;48.304;11.896;2022-08-21T06:18:53;7.20;;;3.95;;
45344;SDS011;31078;48.304;11.896;2022-08-21T06:21:20;16.17;;;4.20;;
45344;SDS011;31078;48.304;11.896;2022-08-21T06:23:47;9.98;;;4.25;;
45344;SDS011;31078;48.304;11.896;2022-08-21T06:26:13;8.00;;;4.40;;
45344;SDS011;31078;48.304;11.896;2022-08-21T06:28:42;8.00;;;3.72;;
45344;SDS011;31078;48.304;11.896;2022-08-21T06:31:12;10.63;;;4.25;;
45344;SDS011;31078;48.304;11.896;2022-08-21T06:33:40;8.63;;;3.42;;
45344;SDS011;31078;48.304;11.896;2022-08-21T06:36:07;8.75;;;4.15;;
45344;SDS011;31078;48.304;11.896;2022-08-21T06:38:34;6.15;;;3.65;;
45344;SDS011;31078;48.304;11.896;2022-08-21T06:41:00;7.40;;;3.97;;
45344;SDS011;31078;48.304;11.896;2022-08-21T06:43:27;8.07;;;3.92;;
45344;SDS011;31078;48.304;11.896;2022-08-21T06:45:55;9.63;;;4.20;;
45344;SDS011;31078;48.304;11.896;2022-08-21T06:48:21;7.97;;;3.95;;
45344;SDS011;31078;48.304;11.896;2022-08-21T06:50:48;9.23;;;3.83;;
45344;SDS011;31078;48.304;11.896;2022-08-21T06:53:16;7.22;;;4.45;;
45344;SDS011;31078;48.304;11.896;2022-08-21T06:55:44;7.72;;;4.32;;
45344;SDS011;31078;48.304;11.896;2022-08-21T06:58:12;7.15;;;4.32;;
45344;SDS011;31078;48.304;11.896;2022-08-21T07:00:39;7.18;;;4.10;;
45344;SDS011;31078;48.304;11.896;2022-08-21T07:03:16;8.45;;;4.32;;
45344;SDS011;31078;48.304;11.896;2022-08-21T07:05:48;7.25;;;3.97;;
45344;SDS011;31078;48.304;11.896;2022-08-21T07:08:14;9.45;;;4.18;;
45344;SDS011;31078;48.304;11.896;2022-08-21T07:10:41;8.70;;;4.18;;
45344;SDS011;31078;48.304;11.896;2022-08-21T07:13:08;8.82;;;4.57;;
45344;SDS011;31078;48.304;11.896;2022-08-21T07:15:34;9.10;;;4.20;;
45344;SDS011;31078;48.304;11.896;2022-08-21T07:18:01;13.93;;;4.70;;
45344;SDS011;31078;48.304;11.896;2022-08-21T07:20:29;12.55;;;4.88;;
45344;SDS011;31078;48.304;11.896;2022-08-21T07:22:57;7.60;;;4.35;;
45344;SDS011;31078;48.304;11.896;2022-08-21T07:25:27;9.75;;;4.72;;
45344;SDS011;31078;48.304;11.896;2022-08-21T07:27:54;7.20;;;4.60;;
45344;SDS011;31078;48.304;11.896;2022-08-21T07:30:21;8.38;;;4.78;;
45344;SDS011;31078;48.304;11.896;2022-08-21T07:32:48;9.00;;;5.13;;
45344;SDS011;31078;48.304;11.896;2022-08-21T07:35:16;11.27;;;5.07;;
45344;SDS011;31078;48.304;11.896;2022-08-21T07:37:44;11.23;;;5.15;;
45344;SDS011;31078;48.304;11.896;2022-08-21T07:40:11;13.20;;;4.80;;
45344;SDS011;31078;48.304;11.896;2022-08-21T07:42:39;9.48;;;4.90;;
45344;SDS011;31078;48.304;11.896;2022-08-21T07:45:07;9.07;;;4.57;;
45344;SDS011;31078;48.304;11.896;2022-08-21T07:47:35;10.32;;;4.57;;
45344;SDS011;31078;48.304;11.896;2022-08-21T07:50:02;8.57;;;4.45;;
45344;SDS011;31078;48.304;11.896;2022-08-21T07:52:29;8.23;;;4.68;;
45344;SDS011;31078;48.304;11.896;2022-08-21T07:54:57;6.05;;;3.80;;
45344;SDS011;31078;48.304;11.896;2022-08-21T07:57:23;5.72;;;3.63;;
45344;SDS011;31078;48.304;11.896;2022-08-21T07:59:50;6.32;;;4.05;;
45344;SDS011;31078;48.304;11.896;2022-08-21T08:02:21;8.10;;;3.45;;
45344;SDS011;31078;48.304;11.896;2022-08-21T08:04:49;5.32;;;3.28;;
45344;SDS011;31078;48.304;11.896;2022-08-21T08:07:15;6.38;;;3.60;;
45344;SDS011;31078;48.304;11.896;2022-08-21T08:09:42;5.50;;;3.80;;
45344;SDS011;31078;48.304;11.896;2022-08-21T08:12:10;5.72;;;3.65;;
45344;SDS011;31078;48.304;11.896;2022-08-21T08:14:37;10.18;;;4.40;;
45344;SDS011;31078;48.304;11.896;2022-08-21T08:17:04;8.98;;;4.10;;
45344;SDS011;31078;48.304;11.896;2022-08-21T08:19:30;6.57;;;3.70;;
45344;SDS011;31078;48.304;11.896;2022-08-21T08:21:57;8.98;;;3.67;;
45344;SDS011;31078;48.304;11.896;2022-08-21T08:24:23;9.60;;;4.00;;
45344;SDS011;31078;48.304;11.896;2022-08-21T08:26:49;9.63;;;3.80;;
45344;SDS011;31078;48.304;11.896;2022-08-21T08:29:17;7.93;;;4.05;;
45344;SDS011;31078;48.304;11.896;2022-08-21T08:31:44;11.98;;;4.22;;
45344;SDS011;31078;48.304;11.896;2022-08-21T08:34:10;9.30;;;4.30;;
45344;SDS011;31078;48.304;11.896;2022-08-21T08:36:37;9.90;;;4.35;;
45344;SDS011;31078;48.304;11.896;2022-08-21T08:39:04;8.45;;;4.63;;
45344;SDS011;31078;48.304;11.896;2022-08-21T08:41:31;11.02;;;4.95;;
45344;SDS011;31078;48.304;11.896;2022-08-21T08:43:59;8.65;;;4.22;;
45344;SDS011;31078;48.304;11.896;2022-08-21T08:46:32;9.70;;;4.38;;
45344;SDS011;31078;48.304;11.896;2022-08-21T08:49:03;8.80;;;4.53;;
45344;SDS011;31078;48.304;11.896;2022-08-21T08:54:06;8.73;;;4.22;;
45344;SDS011;31078;48.304;11.896;2022-08-21T08:56:37;9.68;;;5.00;;
45344;SDS011;31078;48.304;11.896;2022-08-21T08:59:06;10.20;;;4.45;;
45344;SDS011;31078;48.304;11.896;2022-08-21T09:04:05;12.05;;;4.40;;
45344;SDS011;31078;48.304;11.896;2022-08-21T09:06:35;12.38;;;4.95;;
45344;SDS011;31078;48.304;11.896;2022-08-21T09:09:11;11.73;;;4.78;;
45344;SDS011;31078;48.304;11.896;2022-08-21T09:11:49;12.20;;;5.63;;
45344;SDS011;31078;48.304;11.896;2022-08-21T09:14:24;11.93;;;5.05;;
45344;SDS011;31078;48.304;11.896;2022-08-21T09:16:58;11.85;;;4.95;;
45344;SDS011;31078;48.304;11.896;2022-08-21T09:19:36;11.65;;;4.97;;
45344;SDS011;31078;48.304;11.896;2022-08-21T09:22:16;10.75;;;5.07;;
45344;SDS011;31078;48.304;11.896;2022-08-21T09:25:03;10.40;;;5.20;;
45344;SDS011;31078;48.304;11.896;2022-08-21T09:27:36;9.30;;;4.10;;
45344;SDS011;31078;48.304;11.896;2022-08-21T09:30:04;10.00;;;4.40;;
45344;SDS011;31078;48.304;11.896;2022-08-21T09:32:34;12.82;;;4.72;;
45344;SDS011;31078;48.304;11.896;2022-08-21T09:35:04;7.85;;;4.47;;
45344;SDS011;31078;48.304;11.896;2022-08-21T09:37:34;11.07;;;4.95;;
45344;SDS011;31078;48.304;11.896;2022-08-21T09:40:15;11.60;;;5.05;;
45344;SDS011;31078;48.304;11.896;2022-08-21T09:42:53;9.20;;;4.65;;
45344;SDS011;31078;48.304;11.896;2022-08-21T09:45:21;8.48;;;4.22;;
45344;SDS011;31078;48.304;11.896;2022-08-21T09:47:50;9.95;;;4.18;;
45344;SDS011;31078;48.304;11.896;2022-08-21T09:50:19;12.25;;;5.63;;
45344;SDS011;31078;48.304;11.896;2022-08-21T09:52:48;8.40;;;4.30;;
45344;SDS011;31078;48.304;11.896;2022-08-21T09:55:18;7.40;;;4.18;;
45344;SDS011;31078;48.304;11.896;2022-08-21T09:58:06;8.40;;;4.22;;
45344;SDS011;31078;48.304;11.896;2022-08-21T10:00:34;9.45;;;4.88;;
45344;SDS011;31078;48.304;11.896;2022-08-21T10:03:14;12.27;;;4.97;;
45344;SDS011;31078;48.304;11.896;2022-08-21T10:05:50;7.97;;;4.63;;
45344;SDS011;31078;48.304;11.896;2022-08-21T10:08:20;10.48;;;5.30;;
45344;SDS011;31078;48.304;11.896;2022-08-21T10:10:50;8.43;;;4.55;;
45344;SDS011;31078;48.304;11.896;2022-08-21T10:13:21;10.98;;;5.03;;
45344;SDS011;31078;48.304;11.896;2022-08-21T10:16:05;7.97;;;4.63;;
45344;SDS011;31078;48.304;11.896;2022-08-21T10:18:41;9.07;;;5.13;;
45344;SDS011;31078;48.304;11.896;2022-08-21T10:21:15;7.72;;;4.20;;
45344;SDS011;31078;48.304;11.896;2022-08-21T10:23:51;7.93;;;4.97;;
45344;SDS011;31078;48.304;11.896;2022-08-21T10:26:30;9.38;;;5.20;;
45344;SDS011;31078;48.304;11.896;2022-08-21T10:29:06;9.73;;;5.07;;
45344;SDS011;31078;48.304;11.896;2022-08-21T10:31:42;9.55;;;4.70;;
45344;SDS011;31078;48.304;11.896;2022-08-21T10:34:25;7.03;;;4.15;;
45344;SDS011;31078;48.304;11.896;2022-08-21T10:36:58;8.98;;;4.07;;
45344;SDS011;31078;48.304;11.896;2022-08-21T10:39:33;8.43;;;3.92;;
45344;SDS011;31078;48.304;11.896;2022-08-21T10:44:49;9.30;;;4.03;;
45344;SDS011;31078;48.304;11.896;2022-08-21T10:47:28;6.82;;;3.75;;
45344;SDS011;31078;48.304;11.896;2022-08-21T10:50:12;10.13;;;4.72;;
45344;SDS011;31078;48.304;11.896;2022-08-21T10:52:48;9.65;;;4.75;;
45344;SDS011;31078;48.304;11.896;2022-08-21T10:55:31;8.20;;;4.30;;
45344;SDS011;31078;48.304;11.896;2022-08-21T10:58:01;7.78;;;4.32;;
45344;SDS011;31078;48.304;11.896;2022-08-21T11:00:33;8.82;;;3.50;;
45344;SDS011;31078;48.304;11.896;2022-08-21T11:03:07;8.85;;;4.38;;
45344;SDS011;31078;48.304;11.896;2022-08-21T11:05:42;10.02;;;4.22;;
45344;SDS011;31078;48.304;11.896;2022-08-21T11:10:42;9.52;;;4.45;;
45344;SDS011;31078;48.304;11.896;2022-08-21T11:13:13;8.88;;;4.45;;
45344;SDS011;31078;48.304;11.896;2022-08-21T11:15:45;6.18;;;3.55;;
45344;SDS011;31078;48.304;11.896;2022-08-21T11:18:20;8.40;;;4.15;;
45344;SDS011;31078;48.304;11.896;2022-08-21T11:20:54;5.45;;;3.67;;
45344;SDS011;31078;48.304;11.896;2022-08-21T11:23:31;7.65;;;3.80;;
45344;SDS011;31078;48.304;11.896;2022-08-21T11:26:05;6.75;;;3.50;;
45344;SDS011;31078;48.304;11.896;2022-08-21T11:28:37;5.53;;;3.50;;
45344;SDS011;31078;48.304;11.896;2022-08-21T11:31:13;6.60;;;3.90;;
45344;SDS011;31078;48.304;11.896;2022-08-21T11:34:00;8.63;;;4.03;;
45344;SDS011;31078;48.304;11.896;2022-08-21T11:36:36;6.32;;;3.78;;
45344;SDS011;31078;48.304;11.896;2022-08-21T11:39:11;8.50;;;3.85;;
45344;SDS011;31078;48.304;11.896;2022-08-21T11:41:46;7.35;;;3.63;;
45344;SDS011;31078;48.304;11.896;2022-08-21T11:44:23;6.65;;;3.90;;
45344;SDS011;31078;48.304;11.896;2022-08-21T11:47:13;8.88;;;4.30;;
45344;SDS011;31078;48.304;11.896;2022-08-21T11:49:49;7.72;;;3.60;;
45344;SDS011;31078;48.304;11.896;2022-08-21T11:52:25;9.32;;;4.38;;
45344;SDS011;31078;48.304;11.896;2022-08-21T11:54:57;7.63;;;4.13;;
45344;SDS011;31078;48.304;11.896;2022-08-21T11:57:31;8.57;;;4.63;;
45344;SDS011;31078;48.304;11.896;2022-08-21T12:00:04;6.70;;;3.83;;
45344;SDS011;31078;48.304;11.896;2022-08-21T12:02:38;9.73;;;4.88;;
45344;SDS011;31078;48.304;11.896;2022-08-21T12:05:09;10.25;;;5.28;;
45344;SDS011;31078;48.304;11.896;2022-08-21T12:07:59;8.57;;;4.53;;
45344;SDS011;31078;48.304;11.896;2022-08-21T12:10:32;8.45;;;4.22;;
45344;SDS011;31078;48.304;11.896;2022-08-21T12:15:33;9.15;;;4.07;;
45344;SDS011;31078;48.304;11.896;2022-08-21T12:18:01;8.18;;;4.30;;
45344;SDS011;31078;48.304;11.896;2022-08-21T12:20:34;7.05;;;3.85;;
45344;SDS011;31078;48.304;11.896;2022-08-21T12:23:16;6.97;;;3.50;;
45344;SDS011;31078;48.304;11.896;2022-08-21T12:25:58;7.20;;;3.85;;
45344;SDS011;31078;48.304;11.896;2022-08-21T12:28:45;8.48;;;3.70;;
45344;SDS011;31078;48.304;11.896;2022-08-21T12:31:19;8.35;;;4.28;;
45344;SDS011;31078;48.304;11.896;2022-08-21T12:33:50;9.13;;;3.97;;
45344;SDS011;31078;48.304;11.896;2022-08-21T12:36:21;8.88;;;4.30;;
45344;SDS011;31078;48.304;11.896;2022-08-21T12:38:54;7.28;;;4.03;;
45344;SDS011;31078;48.304;11.896;2022-08-21T12:41:25;7.72;;;3.70;;
45344;SDS011;31078;48.304;11.896;2022-08-21T12:43:56;5.13;;;3.40;;
45344;SDS011;31078;48.304;11.896;2022-08-21T12:46:26;6.18;;;3.60;;
45344;SDS011;31078;48.304;11.896;2022-08-21T12:49:00;6.70;;;3.53;;
45344;SDS011;31078;48.304;11.896;2022-08-21T12:51:31;8.30;;;3.70;;
45344;SDS011;31078;48.304;11.896;2022-08-21T12:54:05;6.07;;;3.55;;
45344;SDS011;31078;48.304;11.896;2022-08-21T12:56:33;6.82;;;3.80;;
45344;SDS011;31078;48.304;11.896;2022-08-21T12:59:02;6.97;;;3.90;;
45344;SDS011;31078;48.304;11.896;2022-08-21T13:01:31;7.38;;;3.63;;
45344;SDS011;31078;48.304;11.896;2022-08-21T13:04:01;8.30;;;3.30;;
45344;SDS011;31078;48.304;11.896;2022-08-21T13:06:36;6.65;;;3.63;;
45344;SDS011;31078;48.304;11.896;2022-08-21T13:09:06;8.13;;;3.40;;
45344;SDS011;31078;48.304;11.896;2022-08-21T13:11:35;7.25;;;3.83;;
45344;SDS011;31078;48.304;11.896;2022-08-21T13:14:03;7.25;;;3.90;;
45344;SDS011;31078;48.304;11.896;2022-08-21T13:16:30;7.72;;;3.05;;
45344;SDS011;31078;48.304;11.896;2022-08-21T13:18:59;7.75;;;3.15;;
45344;SDS011;31078;48.304;11.896;2022-08-21T13:21:28;7.65;;;3.35;;
45344;SDS011;31078;48.304;11.896;2022-08-21T13:24:08;8.55;;;3.40;;
45344;SDS011;31078;48.304;11.896;2022-08-21T13:29:06;7.35;;;3.20;;
45344;SDS011;31078;48.304;11.896;2022-08-21T13:31:38;6.10;;;3.30;;
45344;SDS011;31078;48.304;11.896;2022-08-21T13:34:07;10.13;;;5.03;;
45344;SDS011;31078;48.304;11.896;2022-08-21T13:36:36;6.32;;;3.42;;
45344;SDS011;31078;48.304;11.896;2022-08-21T13:39:05;7.40;;;3.40;;
45344;SDS011;31078;48.304;11.896;2022-08-21T13:41:38;7.37;;;3.43;;
45344;SDS011;31078;48.304;11.896;2022-08-21T13:44:14;5.28;;;3.13;;
45344;SDS011;31078;48.304;11.896;2022-08-21T13:46:42;8.18;;;3.33;;
45344;SDS011;31078;48.304;11.896;2022-08-21T13:49:10;6.93;;;3.20;;
45344;SDS011;31078;48.304;11.896;2022-08-21T13:51:40;7.57;;;3.30;;
45344;SDS011;31078;48.304;11.896;2022-08-21T13:54:15;5.82;;;2.75;;
45344;SDS011;31078;48.304;11.896;2022-08-21T13:56:46;7.65;;;3.20;;
45344;SDS011;31078;48.304;11.896;2022-08-21T13:59:23;5.65;;;3.08;;
45344;SDS011;31078;48.304;11.896;2022-08-21T14:01:51;8.00;;;3.22;;
45344;SDS011;31078;48.304;11.896;2022-08-21T14:04:24;5.90;;;3.17;;
45344;SDS011;31078;48.304;11.896;2022-08-21T14:06:56;9.60;;;3.67;;
45344;SDS011;31078;48.304;11.896;2022-08-21T14:09:25;5.68;;;3.05;;
45344;SDS011;31078;48.304;11.896;2022-08-21T14:11:54;6.53;;;3.60;;
45344;SDS011;31078;48.304;11.896;2022-08-21T14:14:24;6.82;;;3.22;;
45344;SDS011;31078;48.304;11.896;2022-08-21T14:16:55;8.45;;;3.38;;
45344;SDS011;31078;48.304;11.896;2022-08-21T14:19:25;8.60;;;3.10;;
45344;SDS011;31078;48.304;11.896;2022-08-21T14:21:54;8.48;;;3.20;;
45344;SDS011;31078;48.304;11.896;2022-08-21T14:24:38;7.88;;;3.53;;
45344;SDS011;31078;48.304;11.896;2022-08-21T14:27:06;6.57;;;3.47;;
45344;SDS011;31078;48.304;11.896;2022-08-21T14:29:34;4.72;;;2.75;;
45344;SDS011;31078;48.304;11.896;2022-08-21T14:32:08;6.82;;;3.17;;
45344;SDS011;31078;48.304;11.896;2022-08-21T14:34:38;6.78;;;3.42;;
45344;SDS011;31078;48.304;11.896;2022-08-21T14:37:04;5.90;;;3.35;;
45344;SDS011;31078;48.304;11.896;2022-08-21T14:39:32;6.22;;;3.17;;
45344;SDS011;31078;48.304;11.896;2022-08-21T14:41:59;8.70;;;3.55;;
45344;SDS011;31078;48.304;11.896;2022-08-21T14:44:26;7.43;;;3.15;;
45344;SDS011;31078;48.304;11.896;2022-08-21T14:46:53;7.78;;;3.22;;
45344;SDS011;31078;48.304;11.896;2022-08-21T14:49:20;10.18;;;3.55;;
45344;SDS011;31078;48.304;11.896;2022-08-21T14:51:47;9.98;;;3.38;;
45344;SDS011;31078;48.304;11.896;2022-08-21T14:54:18;8.25;;;3.53;;
45344;SDS011;31078;48.304;11.896;2022-08-21T14:56:46;7.60;;;3.13;;
45344;SDS011;31078;48.304;11.896;2022-08-21T14:59:13;10.98;;;3.38;;
45344;SDS011;31078;48.304;11.896;2022-08-21T15:01:40;6.55;;;3.28;;
45344;SDS011;31078;48.304;11.896;2022-08-21T15:04:06;7.00;;;3.17;;